createdAt,value
2022-10-16T16:22:08.172Z,18.68
2022-10-16T16:32:14.288Z,18.64
2022-10-16T16:42:17.920Z,18.67
2022-10-16T16:52:20.937Z,18.62
2022-10-16T17:02:24.090Z,18.43
2022-10-16T17:12:27.081Z,18.16
2022-10-16T17:22:30.289Z,17.93
2022-10-16T17:32:33.762Z,17.68
2022-10-16T17:42:36.818Z,17.47
2022-10-16T17:52:39.884Z,17.29
2022-10-16T18:02:43.524Z,17.23
2022-10-16T18:12:49.943Z,17.16
2022-10-16T18:22:54.428Z,17.02
2022-10-16T18:32:57.483Z,16.98
2022-10-16T18:43:00.613Z,16.95
2022-10-16T18:53:03.646Z,16.89
2022-10-16T19:03:06.698Z,16.78
2022-10-16T19:13:11.060Z,16.57
2022-10-16T19:23:14.505Z,16.38
2022-10-16T19:33:17.583Z,16.17
2022-10-16T19:43:20.554Z,15.88
2022-10-16T19:53:23.629Z,15.68
2022-10-16T20:03:26.640Z,15.46
2022-10-16T20:13:30.150Z,15.30
2022-10-16T20:23:33.970Z,15.15
2022-10-16T20:33:39.294Z,14.97
2022-10-16T20:43:47.965Z,14.85
2022-10-16T20:53:57.137Z,14.85
2022-10-16T21:04:02.858Z,14.93
2022-10-16T21:14:08.394Z,14.96
2022-10-16T21:24:13.704Z,14.89
2022-10-16T21:34:19.827Z,14.78
2022-10-16T21:44:23.100Z,14.70
2022-10-16T21:54:26.037Z,14.61
2022-10-16T22:04:29.085Z,14.50
2022-10-16T22:14:32.112Z,14.41
2022-10-16T22:24:35.166Z,14.26
2022-10-16T22:34:38.168Z,14.05
2022-10-16T22:44:41.361Z,13.88
2022-10-16T22:54:44.296Z,13.79
2022-10-16T23:04:47.354Z,13.66
2022-10-16T23:14:50.932Z,13.50
2022-10-16T23:24:53.908Z,13.41
2022-10-16T23:34:56.957Z,13.26
2022-10-16T23:44:59.973Z,13.15
2022-10-16T23:55:03.151Z,13.11
